createdAt,value
2018-12-06T00:00:26.583Z,90.70
2018-12-06T00:02:54.540Z,90.70
2018-12-06T00:05:22.501Z,90.70
2018-12-06T00:08:18.607Z,90.80
2018-12-06T00:10:46.928Z,90.80
2018-12-06T00:13:14.784Z,91.00
2018-12-06T00:15:42.881Z,91.00
2018-12-06T00:18:11.448Z,91.00
2018-12-06T00:20:40.657Z,90.90
2018-12-06T00:23:08.570Z,91.00
2018-12-06T00:25:37.025Z,91.00
2018-12-06T00:28:05.179Z,90.90
2018-12-06T00:30:41.142Z,90.90
2018-12-06T00:33:09.283Z,90.90
2018-12-06T00:35:37.263Z,90.90
2018-12-06T00:38:05.342Z,90.90
2018-12-06T00:40:33.434Z,90.90
2018-12-06T00:43:02.230Z,90.90
2018-12-06T00:45:30.935Z,90.90
2018-12-06T00:48:05.287Z,90.80
2018-12-06T00:50:33.676Z,90.80
2018-12-06T00:53:02.886Z,90.90
2018-12-06T00:55:30.767Z,90.80
2018-12-06T00:57:58.729Z,90.70
2018-12-06T01:00:26.726Z,90.80
2018-12-06T01:02:54.747Z,90.80
2018-12-06T01:05:22.955Z,90.80
2018-12-06T01:07:50.994Z,90.90
2018-12-06T01:10:18.855Z,90.90
2018-12-06T01:12:47.365Z,90.90
2018-12-06T01:15:15.366Z,91.00
2018-12-06T01:17:43.355Z,90.90
2018-12-06T01:20:12.504Z,91.10
2018-12-06T01:22:45.802Z,91.10
2018-12-06T01:25:15.231Z,91.30
2018-12-06T01:27:43.150Z,91.40
2018-12-06T01:30:12.256Z,91.40
2018-12-06T01:32:40.149Z,91.50
2018-12-06T01:35:08.346Z,91.50
2018-12-06T01:37:36.214Z,91.60
2018-12-06T01:40:04.469Z,91.70
2018-12-06T01:42:32.495Z,91.70
2018-12-06T01:45:00.588Z,91.80
2018-12-06T01:47:28.630Z,91.80
2018-12-06T01:49:56.680Z,92.20
2018-12-06T01:52:24.726Z,92.20
2018-12-06T01:54:52.882Z,92.40
2018-12-06T01:57:20.975Z,92.60
2018-12-06T01:59:48.836Z,92.70
2018-12-06T02:02:17.471Z,92.70
2018-12-06T02:04:45.405Z,92.60
2018-12-06T02:07:13.431Z,92.70
2018-12-06T02:09:44.592Z,92.80
2018-12-06T02:12:12.733Z,92.90
2018-12-06T02:14:40.760Z,92.90
2018-12-06T02:17:08.713Z,93.00
2018-12-06T02:19:36.571Z,93.10
2018-12-06T02:22:04.666Z,93.20
2018-12-06T02:24:32.621Z,93.30
2018-12-06T02:27:00.497Z,93.80
2018-12-06T02:29:33.021Z,93.90
2018-12-06T02:32:00.991Z,94.10
2018-12-06T02:34:28.987Z,94.00
2018-12-06T02:36:56.892Z,93.90
2018-12-06T02:39:24.799Z,94.10
2018-12-06T02:41:52.706Z,94.10
2018-12-06T02:44:21.871Z,94.10
2018-12-06T02:46:49.743Z,94.10
2018-12-06T02:49:17.617Z,94.10
2018-12-06T02:51:45.602Z,94.20
2018-12-06T02:54:13.656Z,94.20
2018-12-06T02:56:41.531Z,94.20
2018-12-06T02:59:09.405Z,94.20
2018-12-06T03:01:37.580Z,94.20
2018-12-06T03:04:06.162Z,94.20
2018-12-06T03:06:34.253Z,94.20
2018-12-06T03:09:04.149Z,94.30
2018-12-06T03:11:34.206Z,94.40
2018-12-06T03:14:02.007Z,94.30
2018-12-06T03:16:30.205Z,94.40
2018-12-06T03:18:58.079Z,94.40
2018-12-06T03:21:25.978Z,94.40
2018-12-06T03:23:54.092Z,94.50
2018-12-06T03:26:22.275Z,94.50
2018-12-06T03:28:50.148Z,94.80
2018-12-06T03:31:19.279Z,94.70
2018-12-06T03:33:47.148Z,94.70
2018-12-06T03:36:15.066Z,94.70
2018-12-06T03:38:43.113Z,94.40
2018-12-06T03:41:11.645Z,94.60
2018-12-06T03:43:39.635Z,94.60
2018-12-06T03:46:07.975Z,94.60
2018-12-06T03:48:36.045Z,94.70
2018-12-06T03:51:04.044Z,94.70
2018-12-06T03:53:32.026Z,94.60
2018-12-06T03:56:00.001Z,94.80
2018-12-06T03:58:27.922Z,95.00
2018-12-06T04:00:56.015Z,94.90
2018-12-06T04:03:24.241Z,94.90
2018-12-06T04:05:52.238Z,94.90
2018-12-06T04:08:20.247Z,94.70
2018-12-06T04:10:48.387Z,94.70
2018-12-06T04:13:16.351Z,94.80
2018-12-06T04:15:44.356Z,94.80
2018-12-06T04:18:12.377Z,95.00
2018-12-06T04:20:44.305Z,94.90
2018-12-06T04:23:12.279Z,94.70
2018-12-06T04:25:40.484Z,94.90
2018-12-06T04:28:08.509Z,94.80
2018-12-06T04:30:36.573Z,94.80
2018-12-06T04:33:06.486Z,94.70
2018-12-06T04:35:35.463Z,94.70
2018-12-06T04:38:03.589Z,94.70
2018-12-06T04:40:31.729Z,94.70
2018-12-06T04:42:59.598Z,94.80
2018-12-06T04:45:27.775Z,94.70
2018-12-06T04:47:55.755Z,94.70
2018-12-06T04:50:23.802Z,94.60
2018-12-06T04:52:51.959Z,94.60
2018-12-06T04:55:20.126Z,94.50
2018-12-06T04:57:48.110Z,94.50
2018-12-06T05:00:16.070Z,94.40
2018-12-06T05:02:43.978Z,94.50
2018-12-06T05:05:12.086Z,94.50
2018-12-06T05:07:40.014Z,94.50
2018-12-06T05:10:08.227Z,94.60
2018-12-06T05:12:37.090Z,94.60
2018-12-06T05:15:05.358Z,94.60
2018-12-06T05:17:33.340Z,94.50
2018-12-06T05:20:01.167Z,94.50
2018-12-06T05:22:29.020Z,94.70
2018-12-06T05:24:56.907Z,94.80
2018-12-06T05:27:24.833Z,94.70
2018-12-06T05:29:52.858Z,94.70
2018-12-06T05:32:20.695Z,94.70
2018-12-06T05:34:48.674Z,94.60
2018-12-06T05:37:16.570Z,94.70
2018-12-06T05:39:44.457Z,94.70
2018-12-06T05:42:12.379Z,94.70
2018-12-06T05:44:40.230Z,94.70
2018-12-06T05:47:08.532Z,94.70
2018-12-06T05:49:37.435Z,94.80
2018-12-06T05:52:05.350Z,94.80
2018-12-06T05:54:33.192Z,95.00
2018-12-06T05:57:01.152Z,95.00
2018-12-06T05:59:31.291Z,95.00
2018-12-06T06:01:59.530Z,95.00
2018-12-06T06:04:28.138Z,95.00
2018-12-06T06:06:58.055Z,95.00
2018-12-06T06:09:25.984Z,95.00
2018-12-06T06:11:53.847Z,94.90
2018-12-06T06:14:21.938Z,94.90
2018-12-06T06:16:49.851Z,94.90
2018-12-06T06:19:17.688Z,95.00
2018-12-06T06:21:45.525Z,95.40
2018-12-06T06:24:13.337Z,95.10
2018-12-06T06:26:41.119Z,95.20
2018-12-06T06:29:08.937Z,95.20
2018-12-06T06:31:36.753Z,95.20
2018-12-06T06:34:05.300Z,95.20
2018-12-06T06:36:33.156Z,95.10
2018-12-06T06:39:00.950Z,95.10
2018-12-06T06:41:30.764Z,95.20
2018-12-06T06:43:58.667Z,95.20
2018-12-06T06:46:26.477Z,95.30
2018-12-06T06:48:54.313Z,95.30
2018-12-06T06:51:22.117Z,95.30
2018-12-06T06:53:49.919Z,95.20
2018-12-06T06:56:17.771Z,95.00
2018-12-06T06:58:45.571Z,94.90
2018-12-06T07:01:14.316Z,94.90
2018-12-06T07:03:42.302Z,94.50
2018-12-06T07:06:10.158Z,94.50
2018-12-06T07:08:38.057Z,94.10
2018-12-06T07:11:07.230Z,93.80
2018-12-06T07:13:35.121Z,93.60
2018-12-06T07:16:03.066Z,93.50
2018-12-06T07:18:30.882Z,93.20
2018-12-06T07:20:58.738Z,92.90
2018-12-06T07:23:26.951Z,92.70
2018-12-06T07:25:56.049Z,92.10
2018-12-06T07:28:23.952Z,91.30
2018-12-06T07:30:51.841Z,90.90
2018-12-06T07:33:19.680Z,90.50
2018-12-06T07:35:47.737Z,89.30
2018-12-06T07:38:15.725Z,86.40
2018-12-06T07:40:43.633Z,84.50
2018-12-06T07:43:11.684Z,82.60
2018-12-06T07:45:39.914Z,81.30
2018-12-06T07:48:07.708Z,78.30
2018-12-06T07:50:35.829Z,74.80
2018-12-06T07:53:03.926Z,70.80
2018-12-06T07:55:31.712Z,67.10
2018-12-06T07:57:59.954Z,65.20
2018-12-06T08:00:27.873Z,64.40
2018-12-06T08:02:55.663Z,65.40
2018-12-06T08:05:27.260Z,64.30
2018-12-06T08:07:56.828Z,63.10
2018-12-06T08:10:24.768Z,60.40
2018-12-06T08:12:53.048Z,58.30
2018-12-06T08:15:21.067Z,58.30
2018-12-06T08:17:48.852Z,58.80
2018-12-06T08:20:16.645Z,59.90
2018-12-06T08:22:44.589Z,59.20
2018-12-06T08:25:12.418Z,58.60
2018-12-06T08:27:40.207Z,57.10
2018-12-06T08:30:08.396Z,55.90
2018-12-06T08:32:36.268Z,55.50
2018-12-06T08:35:04.951Z,56.20
2018-12-06T08:37:32.752Z,55.70
2018-12-06T08:40:00.657Z,55.90
2018-12-06T08:42:29.085Z,57.10
2018-12-06T08:44:56.824Z,57.10
2018-12-06T08:47:24.657Z,57.10
2018-12-06T08:49:53.113Z,57.90
2018-12-06T08:52:20.909Z,58.30
2018-12-06T08:54:48.713Z,58.10
2018-12-06T08:57:16.716Z,58.50
2018-12-06T08:59:44.674Z,58.40
2018-12-06T09:02:12.432Z,58.30
2018-12-06T09:04:40.326Z,58.70
2018-12-06T09:07:08.134Z,59.60
2018-12-06T09:09:35.994Z,59.60
2018-12-06T09:12:05.535Z,59.10
2018-12-06T09:14:33.409Z,58.60
2018-12-06T09:17:01.205Z,59.10
2018-12-06T09:19:29.849Z,58.60
2018-12-06T09:21:57.760Z,58.50
2018-12-06T09:24:25.666Z,57.70
2018-12-06T09:26:58.692Z,57.60
2018-12-06T09:29:24.712Z,57.40
2018-12-06T09:31:53.258Z,57.30
2018-12-06T09:34:21.295Z,57.20
2018-12-06T09:36:49.242Z,57.20
2018-12-06T09:39:17.157Z,56.80
2018-12-06T09:41:45.082Z,56.70
2018-12-06T09:44:12.849Z,56.60
2018-12-06T09:46:40.765Z,56.20
2018-12-06T09:49:08.818Z,55.50
2018-12-06T09:51:36.809Z,55.00
2018-12-06T09:54:04.970Z,54.60
2018-12-06T09:56:33.365Z,54.30
2018-12-06T09:59:01.497Z,54.10
2018-12-06T10:01:29.306Z,54.10
2018-12-06T10:03:57.673Z,53.80
2018-12-06T10:06:25.712Z,53.00
2018-12-06T10:08:53.533Z,53.00
2018-12-06T10:11:21.598Z,52.60
2018-12-06T10:13:52.282Z,51.70
2018-12-06T10:16:20.063Z,51.00
2018-12-06T10:18:48.399Z,49.40
2018-12-06T10:21:16.371Z,46.40
2018-12-06T10:23:44.132Z,44.30
2018-12-06T10:26:11.913Z,41.30
2018-12-06T10:28:41.647Z,40.40
2018-12-06T10:31:09.686Z,39.20
2018-12-06T10:33:37.690Z,38.20
2018-12-06T10:36:05.436Z,36.20
2018-12-06T10:38:33.264Z,33.70
2018-12-06T10:41:01.094Z,31.30
2018-12-06T10:43:29.032Z,28.90
2018-12-06T10:45:56.911Z,27.90
2018-12-06T10:48:24.895Z,27.70
2018-12-06T10:51:05.052Z,27.00
2018-12-06T10:53:32.979Z,25.50
2018-12-06T10:56:00.853Z,23.90
2018-12-06T10:58:28.768Z,23.80
2018-12-06T11:01:02.840Z,23.40
2018-12-06T11:03:32.771Z,23.30
2018-12-06T11:06:01.193Z,23.00
2018-12-06T11:08:29.081Z,23.30
2018-12-06T11:10:56.888Z,23.50
2018-12-06T11:13:24.641Z,22.80
2018-12-06T11:18:30.187Z,21.60
2018-12-06T11:20:58.147Z,21.80
2018-12-06T11:23:25.953Z,21.80
2018-12-06T11:25:53.825Z,21.50
2018-12-06T11:28:21.759Z,20.70
2018-12-06T11:30:49.908Z,20.40
2018-12-06T11:33:17.711Z,19.80
2018-12-06T11:35:45.621Z,19.40
2018-12-06T11:38:13.584Z,19.00
2018-12-06T11:40:41.638Z,19.00
2018-12-06T11:43:09.541Z,19.00
2018-12-06T11:45:37.427Z,19.40
2018-12-06T11:48:05.322Z,19.30
2018-12-06T11:50:33.226Z,19.80
2018-12-06T11:53:01.120Z,20.20
2018-12-06T11:55:29.019Z,20.60
2018-12-06T11:57:56.995Z,22.20
2018-12-06T12:00:25.027Z,23.70
2018-12-06T12:02:53.247Z,24.60
2018-12-06T12:05:21.361Z,25.60
2018-12-06T12:07:49.850Z,27.30
2018-12-06T12:10:18.065Z,28.60
2018-12-06T12:12:48.306Z,29.10
2018-12-06T12:15:20.372Z,29.30
2018-12-06T12:17:48.964Z,28.70
2018-12-06T12:20:16.851Z,28.40
2018-12-06T12:22:46.328Z,29.20
2018-12-06T12:25:14.400Z,29.60
2018-12-06T12:27:42.534Z,30.30
2018-12-06T12:30:12.741Z,31.10
2018-12-06T12:32:40.548Z,31.40
2018-12-06T12:35:09.609Z,30.90
2018-12-06T12:37:37.597Z,30.30
2018-12-06T12:40:09.168Z,29.90
2018-12-06T12:42:37.382Z,29.50
2018-12-06T12:45:08.908Z,28.80
2018-12-06T12:47:36.778Z,28.40
2018-12-06T12:50:07.681Z,28.20
2018-12-06T12:52:36.177Z,27.70
2018-12-06T12:55:04.761Z,27.40
2018-12-06T12:57:32.745Z,28.00
2018-12-06T13:00:01.300Z,29.50
2018-12-06T13:02:29.092Z,31.60
2018-12-06T13:04:57.272Z,34.50
2018-12-06T13:07:26.956Z,36.90
2018-12-06T13:09:54.775Z,38.90
2018-12-06T13:12:23.156Z,40.60
2018-12-06T13:14:51.388Z,41.90
2018-12-06T13:17:19.714Z,43.40
2018-12-06T13:19:47.726Z,44.60
2018-12-06T13:22:16.225Z,46.20
2018-12-06T13:24:44.281Z,46.50
2018-12-06T13:27:12.483Z,47.00
2018-12-06T13:29:40.448Z,47.30
2018-12-06T13:32:08.832Z,47.60
2018-12-06T13:34:37.239Z,48.10
2018-12-06T13:37:05.514Z,48.90
2018-12-06T13:39:33.493Z,49.30
2018-12-06T13:42:01.845Z,50.00
2018-12-06T13:44:29.738Z,50.40
2018-12-06T13:46:57.910Z,51.10
2018-12-06T13:49:26.223Z,51.60
2018-12-06T13:51:54.098Z,52.00
2018-12-06T13:57:12.389Z,52.50
2018-12-06T13:59:40.769Z,54.30
2018-12-06T14:02:08.674Z,54.50
2018-12-06T14:04:36.876Z,54.60
2018-12-06T14:07:06.501Z,54.80
2018-12-06T14:09:34.273Z,55.40
2018-12-06T14:12:02.441Z,55.80
2018-12-06T14:14:31.386Z,56.30
2018-12-06T14:16:59.338Z,56.60
2018-12-06T14:19:27.262Z,57.20
2018-12-06T14:21:55.289Z,57.80
2018-12-06T14:24:23.055Z,58.40
2018-12-06T14:26:51.098Z,59.00
2018-12-06T14:29:19.308Z,59.80
2018-12-06T14:31:47.519Z,59.60
2018-12-06T14:34:16.082Z,59.70
2018-12-06T14:36:44.053Z,59.90
2018-12-06T14:39:12.136Z,60.10
2018-12-06T14:41:41.475Z,60.40
2018-12-06T14:44:09.329Z,60.60
2018-12-06T14:46:37.287Z,60.80
2018-12-06T14:49:05.160Z,61.00
2018-12-06T14:51:33.190Z,61.40
2018-12-06T14:54:00.998Z,61.80
2018-12-06T14:56:32.174Z,62.20
2018-12-06T14:59:00.137Z,62.10
2018-12-06T15:01:28.242Z,62.80
2018-12-06T15:03:56.167Z,62.90
2018-12-06T15:06:24.018Z,63.60
2018-12-06T15:08:51.802Z,64.70
2018-12-06T15:11:20.397Z,65.00
2018-12-06T15:13:48.284Z,65.30
2018-12-06T15:16:16.616Z,65.60
2018-12-06T15:18:44.834Z,66.00
2018-12-06T15:24:13.609Z,66.70
2018-12-06T15:26:41.563Z,67.30
2018-12-06T15:29:10.249Z,67.00
2018-12-06T15:31:39.585Z,67.80
2018-12-06T15:34:11.522Z,67.60
2018-12-06T15:36:40.669Z,68.10
2018-12-06T15:39:09.177Z,68.80
2018-12-06T15:41:39.316Z,69.50
2018-12-06T15:44:07.372Z,69.20
2018-12-06T15:46:38.246Z,69.40
2018-12-06T15:49:06.179Z,70.20
2018-12-06T15:51:34.168Z,69.90
2018-12-06T15:54:02.137Z,70.00
2018-12-06T15:56:30.348Z,70.40
2018-12-06T15:58:59.279Z,71.40
2018-12-06T16:01:27.180Z,71.40
2018-12-06T16:03:55.462Z,71.70
2018-12-06T16:06:23.522Z,72.30
2018-12-06T16:08:51.493Z,72.80
2018-12-06T16:11:19.571Z,73.10
2018-12-06T16:13:47.477Z,73.10
2018-12-06T16:16:16.411Z,73.30
2018-12-06T16:18:44.221Z,74.20
2018-12-06T16:21:12.278Z,74.70
2018-12-06T16:23:40.229Z,74.80
2018-12-06T16:26:08.704Z,74.60
2018-12-06T16:28:37.978Z,74.30
2018-12-06T16:31:06.157Z,74.40
2018-12-06T16:33:36.220Z,74.40
2018-12-06T16:36:04.476Z,74.70
2018-12-06T16:38:32.630Z,74.70
2018-12-06T16:41:00.602Z,75.10
2018-12-06T16:43:28.442Z,74.80
2018-12-06T16:45:56.842Z,74.70
2018-12-06T16:48:24.715Z,74.90
2018-12-06T16:50:52.849Z,75.50
2018-12-06T16:53:23.396Z,75.60
2018-12-06T16:55:52.071Z,76.20
2018-12-06T16:58:19.909Z,76.20
2018-12-06T17:00:47.821Z,76.70
2018-12-06T17:03:16.554Z,76.70
2018-12-06T17:05:44.373Z,76.90
2018-12-06T17:08:13.060Z,76.90
2018-12-06T17:10:41.084Z,77.20
2018-12-06T17:13:09.329Z,77.10
2018-12-06T17:15:37.561Z,77.10
2018-12-06T17:18:08.845Z,77.00
2018-12-06T17:20:36.789Z,77.20
2018-12-06T17:23:04.681Z,77.40
2018-12-06T17:25:32.624Z,77.90
2018-12-06T17:28:01.200Z,77.90
2018-12-06T17:30:29.191Z,78.30
2018-12-06T17:32:57.156Z,78.40
2018-12-06T17:35:27.311Z,78.20
2018-12-06T17:37:56.084Z,78.00
2018-12-06T17:40:24.470Z,78.20
2018-12-06T17:42:56.220Z,78.20
2018-12-06T17:45:26.942Z,78.00
2018-12-06T17:47:58.369Z,78.00
2018-12-06T17:50:27.954Z,78.00
2018-12-06T17:52:57.385Z,78.00
2018-12-06T17:55:26.404Z,78.70
2018-12-06T17:57:54.885Z,79.30
2018-12-06T18:00:23.501Z,79.10
2018-12-06T18:02:52.243Z,78.90
2018-12-06T18:05:21.485Z,79.80
2018-12-06T18:07:54.750Z,79.50
2018-12-06T18:10:47.090Z,79.80
2018-12-06T18:13:30.431Z,79.50
2018-12-06T18:16:08.174Z,79.60
2018-12-06T18:18:40.438Z,79.60
2018-12-06T18:21:22.666Z,79.60
2018-12-06T18:24:02.536Z,79.80
2018-12-06T18:26:31.730Z,80.20
2018-12-06T18:29:00.609Z,80.00
2018-12-06T18:31:29.978Z,80.10
2018-12-06T18:34:00.273Z,80.20
2018-12-06T18:36:29.726Z,80.40
2018-12-06T18:39:05.352Z,80.60
2018-12-06T18:41:37.056Z,80.80
2018-12-06T18:44:06.075Z,80.80
2018-12-06T18:46:34.595Z,80.20
2018-12-06T18:49:04.225Z,80.80
2018-12-06T18:51:34.147Z,80.60
2018-12-06T18:54:07.627Z,79.40
2018-12-06T18:56:36.242Z,79.60
2018-12-06T18:59:04.366Z,78.70
2018-12-06T19:01:32.737Z,77.80
2018-12-06T19:04:01.070Z,76.90
2018-12-06T19:06:29.674Z,76.30
2018-12-06T19:08:58.054Z,76.10
2018-12-06T19:11:26.463Z,74.30
2018-12-06T19:13:54.511Z,74.10
2018-12-06T19:16:22.567Z,74.30
2018-12-06T19:18:52.109Z,75.00
2018-12-06T19:21:21.876Z,75.10
2018-12-06T19:23:51.192Z,75.00
2018-12-06T19:26:20.754Z,74.90
2018-12-06T19:28:51.722Z,74.70
2018-12-06T19:31:21.553Z,74.30
2018-12-06T19:33:54.335Z,74.10
2018-12-06T19:36:26.399Z,74.30
2018-12-06T19:39:00.932Z,74.20
2018-12-06T19:41:29.025Z,74.60
2018-12-06T19:43:56.974Z,74.50
2018-12-06T19:46:24.814Z,74.60
2018-12-06T19:48:52.679Z,74.80
2018-12-06T19:51:20.581Z,75.80
2018-12-06T19:53:48.542Z,75.90
2018-12-06T19:56:16.483Z,76.10
2018-12-06T19:58:44.301Z,76.20
2018-12-06T20:03:48.909Z,78.00
2018-12-06T20:06:17.336Z,77.50
2018-12-06T20:08:45.681Z,76.50
2018-12-06T20:11:15.058Z,75.60
2018-12-06T20:13:43.110Z,74.50
2018-12-06T20:16:10.940Z,74.50
2018-12-06T20:18:38.939Z,74.70
2018-12-06T20:21:06.894Z,74.90
2018-12-06T20:23:35.187Z,74.90
2018-12-06T20:26:03.149Z,75.00
2018-12-06T20:28:31.387Z,74.70
2018-12-06T20:30:59.532Z,74.70
2018-12-06T20:33:27.510Z,74.60
2018-12-06T20:36:37.889Z,74.20
2018-12-06T20:39:07.175Z,73.80
2018-12-06T20:41:38.098Z,72.90
2018-12-06T20:44:06.114Z,73.30
2018-12-06T20:46:34.203Z,72.30
2018-12-06T20:49:02.153Z,72.00
2018-12-06T20:51:30.025Z,72.10
2018-12-06T20:53:57.849Z,72.10
2018-12-06T20:56:25.683Z,71.30
2018-12-06T20:58:55.444Z,71.00
2018-12-06T21:01:25.315Z,71.40
2018-12-06T21:03:58.631Z,71.70
2018-12-06T21:06:29.566Z,71.90
2018-12-06T21:09:01.761Z,71.70
2018-12-06T21:11:32.504Z,72.50
2018-12-06T21:14:03.673Z,72.30
2018-12-06T21:16:34.756Z,73.00
2018-12-06T21:19:04.249Z,73.00
2018-12-06T21:21:32.487Z,74.00
2018-12-06T21:24:00.746Z,74.40
2018-12-06T21:26:31.686Z,74.40
2018-12-06T21:29:00.557Z,74.70
2018-12-06T21:31:30.375Z,75.40
2018-12-06T21:33:58.251Z,75.30
2018-12-06T21:36:26.343Z,75.20
2018-12-06T21:38:56.433Z,75.00
2018-12-06T21:41:27.859Z,75.00
2018-12-06T21:43:55.980Z,75.80
2018-12-06T21:46:23.962Z,75.50
2018-12-06T21:48:53.102Z,75.00
2018-12-06T21:51:20.989Z,75.40
2018-12-06T21:53:49.037Z,75.10
2018-12-06T21:56:16.991Z,75.50
2018-12-06T21:58:46.022Z,76.00
2018-12-06T22:01:22.953Z,76.40
2018-12-06T22:03:50.981Z,76.60
2018-12-06T22:06:19.197Z,76.70
2018-12-06T22:08:47.051Z,77.30
2018-12-06T22:11:15.047Z,77.50
2018-12-06T22:13:42.945Z,77.20
2018-12-06T22:16:10.883Z,77.50
2018-12-06T22:18:38.856Z,77.90
2018-12-06T22:21:07.989Z,77.40
2018-12-06T22:23:35.878Z,77.10
2018-12-06T22:26:06.004Z,77.60
2018-12-06T22:28:34.305Z,77.80
2018-12-06T22:31:02.525Z,78.10
2018-12-06T22:33:30.422Z,78.40
2018-12-06T22:35:58.360Z,78.90
2018-12-06T22:38:33.919Z,79.90
2018-12-06T22:40:57.354Z,80.10
2018-12-06T22:43:25.205Z,80.70
2018-12-06T22:45:59.719Z,81.20
2018-12-06T22:48:28.719Z,82.10
2018-12-06T22:50:56.676Z,82.10
2018-12-06T22:53:24.741Z,82.20
2018-12-06T22:55:52.605Z,81.60
2018-12-06T22:58:20.729Z,81.50
2018-12-06T23:00:54.833Z,81.80
2018-12-06T23:03:30.590Z,82.40
2018-12-06T23:05:59.648Z,83.00
2018-12-06T23:08:27.530Z,83.70
2018-12-06T23:10:55.545Z,84.00
2018-12-06T23:13:23.476Z,83.90
2018-12-06T23:15:51.761Z,84.10
2018-12-06T23:18:20.209Z,83.80
2018-12-06T23:20:48.269Z,83.40
2018-12-06T23:23:16.613Z,84.20
2018-12-06T23:25:45.805Z,84.20
2018-12-06T23:28:14.776Z,84.10
2018-12-06T23:30:42.669Z,84.10
2018-12-06T23:33:11.913Z,84.00
2018-12-06T23:35:40.025Z,83.40
2018-12-06T23:38:07.891Z,83.00
2018-12-06T23:40:36.433Z,82.30
2018-12-06T23:43:04.469Z,83.00
2018-12-06T23:45:32.566Z,83.30
2018-12-06T23:48:00.378Z,82.80
2018-12-06T23:50:28.685Z,82.90
2018-12-06T23:52:56.923Z,82.60
2018-12-06T23:55:24.758Z,82.20
2018-12-06T23:57:52.627Z,81.90
